Time;durP1;ratioP1;P1;durP2;ratioP2;P2;SDS_P1;SDS_P2;PMS_P1;PMS_P2;Temp;Humidity;BMP_temperature;BMP_pressure;BME280_temperature;BME280_humidity;BME280_pressure;Samples;Min_cycle;Max_cycle;Signal;HPM_P1;HPM_P2
2021/07/17 00:08:57;;;;;;;10.70;6.90;;;15.70;99.90;;;;;;20997345;28;20059;-78
2021/07/17 00:18:58;;;;;;;11.33;5.63;;;15.70;99.90;;;;;;20995241;28;20039;-77
2021/07/17 00:28:59;;;;;;;3.17;2.77;;;15.70;99.90;;;;;;20995440;28;20078;-77
2021/07/17 00:39:00;;;;;;;6.17;3.80;;;15.50;99.90;;;;;;20995951;28;20082;-82
2021/07/17 00:49:01;;;;;;;10.43;5.90;;;15.00;99.90;;;;;;20999706;28;20025;-80
2021/07/17 00:59:04;;;;;;;16.42;7.97;;;14.90;99.90;;;;;;20999872;28;20024;-80
2021/07/17 01:09:04;;;;;;;18.88;9.63;;;14.90;99.90;;;;;;20996468;28;20392;-83
2021/07/17 01:19:10;;;;;;;20.07;10.30;;;15.00;99.90;;;;;;20998212;28;20021;-78
2021/07/17 01:29:11;;;;;;;34.67;13.75;;;15.10;99.90;;;;;;20995184;28;20478;-80
2021/07/17 01:39:11;;;;;;;35.93;15.13;;;15.20;99.90;;;;;;20993931;28;20028;-81
2021/07/17 01:49:12;;;;;;;35.53;15.00;;;15.30;99.90;;;;;;20997318;28;20103;-79
2021/07/17 01:59:13;;;;;;;44.47;15.63;;;15.20;99.90;;;;;;20994946;28;20100;-79
2021/07/17 02:09:14;;;;;;;47.73;15.30;;;15.10;99.90;;;;;;20996072;28;20069;-80
2021/07/17 02:19:22;;;;;;;45.00;15.33;;;15.10;99.90;;;;;;20994376;28;20074;-81
2021/07/17 02:29:23;;;;;;;34.78;12.73;;;15.00;99.90;;;;;;20993419;28;20036;-81
2021/07/17 02:39:24;;;;;;;38.10;12.73;;;15.00;99.90;;;;;;20994079;28;20028;-79
2021/07/17 02:49:25;;;;;;;24.17;11.13;;;15.10;99.90;;;;;;20993901;28;20556;-81
2021/07/17 02:59:25;;;;;;;27.47;11.77;;;15.20;99.90;;;;;;21009192;28;20383;-81
2021/07/17 03:09:26;;;;;;;26.90;13.03;;;15.00;99.90;;;;;;20990871;28;20106;-79
2021/07/17 03:19:27;;;;;;;35.07;14.20;;;15.10;99.90;;;;;;21008172;28;20025;-80
2021/07/17 03:29:28;;;;;;;34.17;16.83;;;15.20;99.90;;;;;;21008112;28;20072;-81
2021/07/17 03:39:28;;;;;;;22.17;12.20;;;15.30;99.90;;;;;;21007797;28;20070;-81
2021/07/17 03:49:29;;;;;;;24.50;12.90;;;15.30;99.90;;;;;;21007308;28;20429;-82
2021/07/17 03:59:30;;;;;;;28.47;13.60;;;15.30;99.90;;;;;;21006485;28;20040;-82
2021/07/17 04:09:31;;;;;;;21.37;10.60;;;15.30;99.90;;;;;;21003395;28;20032;-79
2021/07/17 04:19:32;;;;;;;23.63;11.23;;;15.20;99.90;;;;;;20983007;28;20402;-79
2021/07/17 04:29:33;;;;;;;20.17;11.57;;;15.00;99.90;;;;;;20981847;28;20031;-81
2021/07/17 04:39:34;;;;;;;25.40;11.33;;;15.20;99.90;;;;;;20999480;28;20032;-79
2021/07/17 04:49:35;;;;;;;28.43;13.30;;;15.30;99.90;;;;;;20998063;28;20067;-79
2021/07/17 04:59:35;;;;;;;31.37;13.40;;;15.50;99.90;;;;;;20998592;28;20036;-79
2021/07/17 05:09:36;;;;;;;31.60;14.43;;;15.70;99.90;;;;;;20999719;28;20371;-81
2021/07/17 05:19:37;;;;;;;27.10;14.23;;;15.80;99.90;;;;;;21000243;28;20031;-80
2021/07/17 05:29:38;;;;;;;23.67;14.13;;;16.00;99.90;;;;;;20998504;28;20028;-79
2021/07/17 05:39:39;;;;;;;24.07;13.87;;;16.10;99.90;;;;;;21008690;22;20036;-77
2021/07/17 05:49:40;;;;;;;21.90;14.00;;;16.10;99.90;;;;;;20990877;28;20479;-78
2021/07/17 05:59:40;;;;;;;23.57;12.83;;;16.20;99.90;;;;;;20990332;28;20026;-78
2021/07/17 06:09:43;;;;;;;20.70;11.13;;;16.40;99.90;;;;;;21025292;28;20084;-78
2021/07/17 06:19:44;;;;;;;16.73;11.05;;;16.60;99.90;;;;;;21006576;28;20571;-80
2021/07/17 06:29:45;;;;;;;15.03;8.73;;;16.90;99.90;;;;;;20976154;28;20056;-81
2021/07/17 06:39:46;;;;;;;16.87;8.33;;;17.10;99.90;;;;;;20994900;28;20036;-80
2021/07/17 06:49:46;;;;;;;20.33;10.97;;;17.20;99.90;;;;;;21005908;28;20016;-80
2021/07/17 06:59:47;;;;;;;16.70;10.20;;;17.10;99.90;;;;;;21027774;28;20040;-82
2021/07/17 07:09:48;;;;;;;20.30;11.37;;;17.10;99.90;;;;;;21013369;28;20869;-79
2021/07/17 07:19:49;;;;;;;18.87;10.87;;;17.90;99.90;;;;;;21003111;28;20036;-79
2021/07/17 07:29:50;;;;;;;22.23;11.57;;;18.30;99.90;;;;;;21005313;28;20035;-81
2021/07/17 07:39:52;;;;;;;18.13;11.50;;;17.80;99.90;;;;;;21003427;28;20032;-81
2021/07/17 07:49:54;;;;;;;21.08;12.00;;;17.80;99.90;;;;;;21007883;28;20032;-80
2021/07/17 07:59:55;;;;;;;20.17;10.97;;;18.00;99.90;;;;;;21006795;28;20033;-79
2021/07/17 08:09:55;;;;;;;14.70;10.20;;;18.70;99.90;;;;;;20998102;28;20031;-81
2021/07/17 08:19:56;;;;;;;14.77;10.07;;;18.70;99.90;;;;;;20997805;28;20028;-81
2021/07/17 08:29:57;;;;;;;16.60;10.93;;;19.10;99.90;;;;;;21007459;28;20593;-79
2021/07/17 08:39:58;;;;;;;22.77;11.80;;;18.30;99.90;;;;;;21002459;28;20414;-79
2021/07/17 08:50:00;;;;;;;14.97;10.20;;;18.40;99.90;;;;;;20997870;28;20036;-81
2021/07/17 09:00:10;;;;;;;19.55;11.63;;;18.90;99.90;;;;;;20988890;28;20039;-80
2021/07/17 09:11:02;;;;;;;17.30;10.25;;;19.20;99.90;;;;;;20985490;28;20515;-78
2021/07/17 09:21:10;;;;;;;13.98;9.13;;;20.10;99.90;;;;;;20962195;28;20086;-78
2021/07/17 09:31:11;;;;;;;11.45;8.38;;;21.40;99.90;;;;;;20981516;28;20478;-79
2021/07/17 09:41:13;;;;;;;14.50;9.00;;;21.80;99.90;;;;;;20979628;28;20089;-79
2021/07/17 09:51:19;;;;;;;12.07;7.97;;;21.50;99.90;;;;;;20981392;28;20032;-80
2021/07/17 10:01:29;;;;;;;16.10;7.97;;;22.10;99.90;;;;;;20990173;28;20036;-80
2021/07/17 10:11:30;;;;;;;10.65;7.10;;;21.40;99.90;;;;;;21009881;28;20028;-79
2021/07/17 10:21:31;;;;;;;9.70;6.27;;;21.60;99.90;;;;;;21009902;28;20067;-78
2021/07/17 10:31:33;;;;;;;9.15;6.88;;;23.80;99.90;;;;;;21005094;28;20067;-79
2021/07/17 10:41:36;;;;;;;10.98;6.72;;;23.50;99.90;;;;;;21004628;28;20051;-79
2021/07/17 10:51:39;;;;;;;10.98;7.10;;;23.50;99.90;;;;;;21003492;28;20093;-80
2021/07/17 11:02:02;;;;;;;10.70;7.13;;;23.30;99.90;;;;;;20988177;28;20071;-79
2021/07/17 11:12:19;;;;;;;7.05;6.22;;;24.10;99.90;;;;;;21010571;28;20028;-79
2021/07/17 11:22:20;;;;;;;9.48;7.47;;;24.00;99.90;;;;;;21000127;28;20032;-79
2021/07/17 11:32:21;;;;;;;12.47;7.80;;;23.00;99.90;;;;;;20998150;28;20448;-79
2021/07/17 11:42:23;;;;;;;11.60;8.00;;;22.60;99.90;;;;;;21075426;23;20048;-84
2021/07/17 11:52:26;;;;;;;10.52;7.28;;;24.00;99.90;;;;;;21059897;28;20043;-82
2021/07/17 12:02:30;;;;;;;10.48;6.50;;;25.40;99.90;;;;;;21077012;28;20064;-81
2021/07/17 12:12:43;;;;;;;5.82;4.93;;;25.50;99.90;;;;;;21074090;28;20043;-81
2021/07/17 12:22:53;;;;;;;6.50;5.45;;;25.60;99.90;;;;;;21079562;28;20055;-82
2021/07/17 12:33:23;;;;;;;8.93;4.25;;;26.10;99.90;;;;;;21059615;28;20039;-81
2021/07/17 12:43:40;;;;;;;6.00;3.75;;;25.70;99.90;;;;;;21074615;28;20040;-81
2021/07/17 12:53:43;;;;;;;11.68;4.47;;;26.10;99.90;;;;;;21042489;28;20036;-80
2021/07/17 13:03:44;;;;;;;5.93;3.80;;;27.20;99.90;;;;;;21056028;28;20032;-81
2021/07/17 13:13:50;;;;;;;4.80;3.60;;;26.00;99.90;;;;;;21072649;28;20087;-82
2021/07/17 13:23:57;;;;;;;6.03;4.00;;;26.80;99.90;;;;;;21063384;28;20035;-84
2021/07/17 13:34:09;;;;;;;7.57;3.78;;;27.50;99.90;;;;;;21059947;28;20036;-83
2021/07/17 13:44:12;;;;;;;7.80;4.22;;;28.10;99.90;;;;;;21058880;28;20062;-82
2021/07/17 13:54:13;;;;;;;7.72;4.03;;;28.00;99.90;;;;;;21039062;28;20039;-82
2021/07/17 14:04:13;;;;;;;5.55;4.05;;;27.30;99.90;;;;;;21062694;28;20039;-82
2021/07/17 14:14:15;;;;;;;6.25;4.03;;;26.90;99.90;;;;;;21046070;28;20040;-82
2021/07/17 14:24:17;;;;;;;7.18;3.88;;;26.20;99.90;;;;;;21063963;28;20086;-82
2021/07/17 14:34:18;;;;;;;8.85;5.13;;;26.20;99.90;;;;;;21066137;28;20677;-83
2021/07/17 14:44:19;;;;;;;5.20;3.70;;;26.30;99.90;;;;;;21060945;28;20443;-83
2021/07/17 14:54:20;;;;;;;4.72;3.78;;;26.70;99.90;;;;;;21019131;28;20078;-83
2021/07/17 15:04:21;;;;;;;7.90;3.30;;;27.20;99.90;;;;;;20975000;28;20449;-82
2021/07/17 15:14:22;;;;;;;4.90;3.80;;;26.20;99.90;;;;;;20989948;28;20044;-83
2021/07/17 15:24:23;;;;;;;13.25;3.85;;;25.80;99.90;;;;;;21053344;28;20035;-82
2021/07/17 15:34:24;;;;;;;;;;;25.70;99.90;;;;;;21070999;28;20035;-82
2021/07/17 15:44:25;;;;;;;6.72;4.28;;;26.10;99.90;;;;;;21071916;28;19912;-83
2021/07/17 15:54:26;;;;;;;6.82;4.45;;;26.00;99.90;;;;;;21054567;28;20038;-84
2021/07/17 16:04:26;;;;;;;;;;;25.90;99.90;;;;;;21052496;28;20036;-85
2021/07/17 16:14:27;;;;;;;18.70;10.17;;;25.70;99.90;;;;;;21069329;28;20043;-84
2021/07/17 16:24:28;;;;;;;;;;;25.30;99.90;;;;;;21055855;28;20059;-82
2021/07/17 16:34:29;;;;;;;6.97;4.57;;;25.00;99.90;;;;;;21055844;28;20310;-82
2021/07/17 16:44:30;;;;;;;;;;;24.70;99.90;;;;;;21039409;28;20028;-83
2021/07/17 16:54:31;;;;;;;13.30;8.20;;;24.10;99.90;;;;;;21037895;28;20011;-83
2021/07/17 17:04:32;;;;;;;;;;;23.80;99.90;;;;;;21052945;28;20282;-84
2021/07/17 17:14:33;;;;;;;6.82;5.25;;;23.40;99.90;;;;;;21053042;28;20022;-84
2021/07/17 17:24:34;;;;;;;7.10;5.43;;;23.40;99.90;;;;;;21038403;28;20039;-84
2021/07/17 17:34:35;;;;;;;11.77;5.80;;;23.30;99.90;;;;;;21054611;22;20320;-76
2021/07/17 17:44:36;;;;;;;8.20;5.60;;;23.10;99.90;;;;;;21024980;28;20132;-78
2021/07/17 17:54:39;;;;;;;7.70;5.90;;;23.00;99.90;;;;;;21034712;28;20290;-80
2021/07/17 18:04:39;;;;;;;16.17;9.57;;;22.80;99.90;;;;;;21050526;28;20406;-78
2021/07/17 18:14:40;;;;;;;15.80;10.30;;;22.60;99.90;;;;;;21000105;28;20071;-78
2021/07/17 18:24:41;;;;;;;13.20;7.80;;;22.50;99.90;;;;;;21010583;28;20392;-77
2021/07/17 18:34:43;;;;;;;11.13;7.97;;;22.00;99.90;;;;;;21019334;28;20032;-79
2021/07/17 18:44:44;;;;;;;11.35;7.80;;;21.70;99.90;;;;;;21025810;28;20032;-76
2021/07/17 18:54:44;;;;;;;15.23;8.13;;;20.90;99.90;;;;;;21024167;28;20039;-78
2021/07/17 19:04:45;;;;;;;14.23;9.07;;;21.10;99.90;;;;;;21018343;28;20653;-78
2021/07/17 19:14:46;;;;;;;17.60;11.83;;;20.90;99.90;;;;;;21024303;28;20047;-78
2021/07/17 19:24:49;;;;;;;23.57;11.07;;;20.80;99.90;;;;;;21031162;28;20025;-78
2021/07/17 19:34:51;;;;;;;15.13;9.68;;;20.40;99.90;;;;;;20993941;28;20043;-78
2021/07/17 19:44:51;;;;;;;18.45;9.60;;;20.30;99.90;;;;;;21012314;28;20050;-79
2021/07/17 19:54:52;;;;;;;16.87;10.97;;;20.20;99.90;;;;;;21001442;28;20044;-77
2021/07/17 20:04:54;;;;;;;17.40;11.80;;;20.10;99.90;;;;;;21019837;28;20028;-79
2021/07/17 20:14:54;;;;;;;;;;;20.00;99.90;;;;;;21017218;28;20040;-78
2021/07/17 20:24:55;;;;;;;15.47;10.83;;;19.90;99.90;;;;;;21011261;28;19916;-78
2021/07/17 20:34:56;;;;;;;22.70;11.30;;;20.00;99.90;;;;;;21007658;28;20036;-78
2021/07/17 20:44:57;;;;;;;;;;;19.90;99.90;;;;;;21000634;28;20059;-77
2021/07/17 20:54:58;;;;;;;21.70;11.77;;;19.60;99.90;;;;;;21002521;28;20268;-79
2021/07/17 21:04:59;;;;;;;19.67;11.37;;;19.60;99.90;;;;;;21003498;28;20036;-78
2021/07/17 21:15:00;;;;;;;22.77;13.80;;;19.80;99.90;;;;;;21007337;28;20032;-78
2021/07/17 21:25:01;;;;;;;24.37;14.37;;;19.70;99.90;;;;;;21021775;28;20040;-79
2021/07/17 21:35:03;;;;;;;23.13;14.00;;;19.60;99.90;;;;;;21044070;28;20055;-79
2021/07/17 21:45:05;;;;;;;31.40;18.08;;;19.50;99.90;;;;;;21027011;28;20036;-79
2021/07/17 21:55:07;;;;;;;31.75;18.13;;;19.40;99.90;;;;;;21027034;28;20040;-79
2021/07/17 22:05:08;;;;;;;;;;;19.30;99.90;;;;;;21018362;28;20036;-78
2021/07/17 22:15:09;;;;;;;28.48;18.15;;;19.30;99.90;;;;;;20996071;28;20016;-78
2021/07/17 22:25:10;;;;;;;32.07;19.00;;;19.30;99.90;;;;;;21019037;28;20037;-78
2021/07/17 22:35:11;;;;;;;32.37;20.27;;;19.40;99.90;;;;;;21002994;28;20039;-78
2021/07/17 22:45:13;;;;;;;33.67;21.55;;;19.30;99.90;;;;;;21025026;28;20040;-79
2021/07/17 22:55:16;;;;;;;35.33;21.25;;;19.30;99.90;;;;;;20984964;28;20053;-77
2021/07/17 23:05:21;;;;;;;35.63;24.08;;;19.20;99.90;;;;;;20945823;28;20044;-78
2021/07/17 23:15:22;;;;;;;39.58;23.77;;;19.10;99.90;;;;;;20963541;28;20043;-78
2021/07/17 23:25:23;;;;;;;40.63;24.90;;;19.00;99.90;;;;;;21046329;28;20406;-79
2021/07/17 23:35:24;;;;;;;42.20;24.80;;;18.80;99.90;;;;;;21051882;22;20032;-77
2021/07/17 23:45:25;;;;;;;52.87;25.10;;;18.80;99.90;;;;;;20904719;28;20033;-78
2021/07/17 23:55:28;;;;;;;39.87;24.63;;;18.70;99.90;;;;;;20904981;28;20033;-78
